Time;durP1;ratioP1;P1;durP2;ratioP2;P2;SDS_P1;SDS_P2;PMS_P1;PMS_P2;Temp;Humidity;BMP_temperature;BMP_pressure;BME280_temperature;BME280_humidity;BME280_pressure;Samples;Min_cycle;Max_cycle;Signal;HPM_P1;HPM_P2
2023/05/29 00:02:27;;;;;;;;;11.00;11.00;;;;;;;;5054407;28;8877;-82
2023/05/29 00:04:54;;;;;;;;;11.25;11.25;;;;;;;;5051055;28;8938;-83
2023/05/29 00:07:21;;;;;;;;;10.75;8.25;;;;;;;;5052384;28;8855;-85
2023/05/29 00:09:50;;;;;;;;;10.75;10.25;;;;;;;;5064185;28;8870;-85
2023/05/29 00:12:18;;;;;;;;;11.00;9.00;;;;;;;;5049097;28;9685;-85
2023/05/29 00:14:45;;;;;;;;;8.00;8.00;;;;;;;;5062893;28;8852;-83
2023/05/29 00:17:15;;;;;;;;;6.00;6.00;;;;;;;;5062577;28;8898;-85
2023/05/29 00:19:42;;;;;;;;;13.75;11.00;;;;;;;;5054695;28;9721;-85
2023/05/29 00:22:10;;;;;;;;;12.75;11.00;;;;;;;;5052268;28;9590;-86
2023/05/29 00:24:40;;;;;;;;;8.00;8.00;;;;;;;;5049669;28;8896;-82
2023/05/29 00:27:09;;;;;;;;;11.00;8.75;;;;;;;;5051716;28;8858;-87
2023/05/29 00:29:37;;;;;;;;;9.25;8.25;;;;;;;;5051833;28;8888;-84
2023/05/29 00:32:05;;;;;;;;;11.25;9.50;;;;;;;;5052827;28;8838;-84
2023/05/29 00:34:33;;;;;;;;;13.75;12.00;;;;;;;;5057976;28;8862;-84
2023/05/29 00:37:01;;;;;;;;;9.50;9.50;;;;;;;;5059986;28;8872;-87
2023/05/29 00:39:28;;;;;;;;;10.25;10.00;;;;;;;;5059970;28;8847;-83
2023/05/29 00:41:57;;;;;;;;;11.25;8.50;;;;;;;;5051260;28;9602;-87
2023/05/29 00:44:26;;;;;;;;;10.75;8.75;;;;;;;;5045596;28;8954;-85
2023/05/29 00:46:58;;;;;;;;;11.50;11.50;;;;;;;;5056030;28;8856;-82
2023/05/29 00:49:28;;;;;;;;;11.00;9.25;;;;;;;;5052557;28;8871;-82
2023/05/29 00:51:56;;;;;;;;;11.25;11.25;;;;;;;;5051873;28;8885;-83
2023/05/29 00:54:29;;;;;;;;;10.25;10.00;;;;;;;;5051004;28;8874;-81
2023/05/29 00:56:58;;;;;;;;;10.00;8.25;;;;;;;;5046154;28;8870;-84
2023/05/29 00:59:31;;;;;;;;;11.25;11.00;;;;;;;;5055651;28;8872;-83
2023/05/29 01:02:02;;;;;;;;;10.00;9.00;;;;;;;;5056155;28;8848;-82
2023/05/29 01:04:29;;;;;;;;;10.25;10.25;;;;;;;;5054059;28;8865;-83
2023/05/29 01:06:57;;;;;;;;;11.75;11.50;;;;;;;;5046689;28;8899;-82
2023/05/29 01:09:24;;;;;;;;;9.25;9.25;;;;;;;;5056490;28;8852;-82
2023/05/29 01:11:57;;;;;;;;;12.25;9.50;;;;;;;;5052414;28;8851;-82
2023/05/29 01:14:30;;;;;;;;;10.75;10.75;;;;;;;;5044562;28;8847;-86
2023/05/29 01:17:05;;;;;;;;;13.00;11.75;;;;;;;;5051483;28;8831;-80
2023/05/29 01:19:55;;;;;;;;;12.75;11.50;;;;;;;;5051642;28;8920;-87
2023/05/29 01:22:33;;;;;;;;;12.75;9.25;;;;;;;;5040957;28;8855;-87
2023/05/29 01:25:12;;;;;;;;;11.25;10.25;;;;;;;;5047725;28;8862;-85
2023/05/29 01:27:42;;;;;;;;;10.25;9.75;;;;;;;;5056805;28;8840;-83
2023/05/29 01:30:12;;;;;;;;;11.25;9.50;;;;;;;;5051115;28;8859;-82
2023/05/29 01:32:41;;;;;;;;;10.50;10.00;;;;;;;;5045478;28;8900;-84
2023/05/29 01:35:09;;;;;;;;;13.00;13.00;;;;;;;;5047553;28;8904;-87
2023/05/29 01:37:40;;;;;;;;;12.00;10.33;;;;;;;;5046219;28;8950;-82
2023/05/29 01:40:09;;;;;;;;;15.50;12.25;;;;;;;;5050640;28;8926;-85
2023/05/29 01:42:36;;;;;;;;;10.00;10.00;;;;;;;;5052416;28;8874;-83
2023/05/29 01:45:06;;;;;;;;;9.25;9.00;;;;;;;;5050859;28;8847;-82
2023/05/29 01:47:34;;;;;;;;;11.00;8.67;;;;;;;;5051629;28;8874;-84
2023/05/29 01:50:03;;;;;;;;;16.67;11.33;;;;;;;;5049718;28;9704;-82
2023/05/29 01:52:30;;;;;;;;;15.50;10.75;;;;;;;;5037531;28;9134;-85
2023/05/29 01:54:58;;;;;;;;;9.33;8.67;;;;;;;;5051983;28;8855;-84
2023/05/29 01:57:25;;;;;;;;;9.33;9.33;;;;;;;;5039871;28;8949;-88
2023/05/29 01:59:53;;;;;;;;;12.00;10.67;;;;;;;;5038533;28;9022;-85
2023/05/29 02:02:23;;;;;;;;;12.67;10.33;;;;;;;;5050637;28;8997;-85
2023/05/29 02:04:51;;;;;;;;;9.00;9.00;;;;;;;;5051922;28;9065;-86
2023/05/29 02:07:19;;;;;;;;;12.67;12.67;;;;;;;;5062939;28;9031;-83
2023/05/29 02:09:46;;;;;;;;;12.00;12.00;;;;;;;;5060534;28;9070;-86
2023/05/29 02:12:14;;;;;;;;;11.67;11.00;;;;;;;;5050496;28;9041;-85
2023/05/29 02:14:41;;;;;;;;;9.67;9.67;;;;;;;;5055593;28;8954;-87
2023/05/29 02:17:09;;;;;;;;;14.33;12.67;;;;;;;;5057273;28;9013;-85
2023/05/29 02:19:38;;;;;;;;;13.00;11.67;;;;;;;;5054271;28;8968;-83
2023/05/29 02:22:05;;;;;;;;;10.00;10.00;;;;;;;;5066292;28;9079;-87
2023/05/29 02:24:33;;;;;;;;;13.00;13.00;;;;;;;;5058081;28;9654;-83
2023/05/29 02:27:00;;;;;;;;;12.00;12.00;;;;;;;;5065891;28;9107;-86
2023/05/29 02:29:30;;;;;;;;;11.67;11.67;;;;;;;;5063252;28;9006;-83
2023/05/29 02:32:01;;;;;;;;;13.67;13.67;;;;;;;;5054245;28;9035;-85
2023/05/29 02:34:31;;;;;;;;;16.00;12.00;;;;;;;;5055182;28;9095;-86
2023/05/29 02:36:59;;;;;;;;;11.00;11.00;;;;;;;;5042378;28;9139;-86
2023/05/29 02:39:29;;;;;;;;;13.00;12.67;;;;;;;;5052972;28;9030;-87
2023/05/29 02:41:57;;;;;;;;;14.00;9.67;;;;;;;;5054421;28;9099;-82
2023/05/29 02:44:24;;;;;;;;;10.00;10.00;;;;;;;;5062619;28;9221;-81
2023/05/29 02:46:52;;;;;;;;;12.67;10.00;;;;;;;;5051080;28;9252;-81
2023/05/29 02:49:23;;;;;;;;;13.00;11.00;;;;;;;;5050851;28;9281;-81
2023/05/29 02:51:50;;;;;;;;;13.00;11.67;;;;;;;;5055962;28;9253;-81
2023/05/29 02:54:19;;;;;;;;;10.33;10.33;;;;;;;;5056894;28;9320;-84
2023/05/29 02:56:46;;;;;;;;;12.00;10.67;;;;;;;;5051073;28;9263;-82
2023/05/29 02:59:13;;;;;;;;;11.00;11.00;;;;;;;;5061166;28;9255;-82
2023/05/29 03:01:41;;;;;;;;;11.67;10.67;;;;;;;;5059938;28;9353;-85
2023/05/29 03:04:11;;;;;;;;;12.50;12.50;;;;;;;;5051908;28;9256;-83
2023/05/29 03:06:38;;;;;;;;;10.75;9.75;;;;;;;;5052402;28;10148;-84
2023/05/29 03:09:06;;;;;;;;;18.00;15.25;;;;;;;;5056868;28;10410;-83
2023/05/29 03:11:35;;;;;;;;;13.50;12.00;;;;;;;;5064905;28;9627;-83
2023/05/29 03:14:03;;;;;;;;;13.00;11.25;;;;;;;;5054691;28;10489;-84
2023/05/29 03:16:31;;;;;;;;;14.00;12.00;;;;;;;;5052249;28;9624;-84
2023/05/29 03:19:01;;;;;;;;;16.50;13.00;;;;;;;;5051766;28;9797;-84
2023/05/29 03:21:29;;;;;;;;;14.00;12.25;;;;;;;;5040522;28;9947;-83
2023/05/29 03:23:56;;;;;;;;;14.00;14.00;;;;;;;;5050173;28;10628;-86
2023/05/29 03:26:26;;;;;;;;;16.50;14.50;;;;;;;;5046443;28;10100;-84
2023/05/29 03:28:55;;;;;;;;;22.25;18.75;;;;;;;;5053673;28;10108;-82
2023/05/29 03:31:24;;;;;;;;;19.25;16.25;;;;;;;;5056641;28;10085;-82
2023/05/29 03:33:52;;;;;;;;;20.25;20.25;;;;;;;;5067557;28;9860;-82
2023/05/29 03:36:24;;;;;;;;;16.50;13.75;;;;;;;;5064837;28;10024;-83
2023/05/29 03:38:51;;;;;;;;;17.50;16.25;;;;;;;;5064423;28;10177;-86
2023/05/29 03:41:19;;;;;;;;;22.00;19.00;;;;;;;;5045667;28;10012;-83
2023/05/29 03:43:49;;;;;;;;;20.75;19.00;;;;;;;;5052356;28;10218;-85
2023/05/29 03:46:18;;;;;;;;;21.75;19.25;;;;;;;;5049307;28;10101;-85
2023/05/29 03:48:45;;;;;;;;;19.75;18.00;;;;;;;;5052358;28;10023;-84
2023/05/29 03:51:12;;;;;;;;;20.50;20.25;;;;;;;;5052629;28;10033;-84
2023/05/29 03:53:40;;;;;;;;;22.50;20.50;;;;;;;;5054657;28;10024;-83
2023/05/29 03:56:07;;;;;;;;;20.50;20.50;;;;;;;;5059424;28;9940;-85
2023/05/29 03:58:36;;;;;;;;;19.25;18.25;;;;;;;;5051954;28;10101;-85
2023/05/29 04:01:03;;;;;;;;;17.50;15.75;;;;;;;;5051507;28;9848;-84
2023/05/29 04:03:35;;;;;;;;;19.75;18.25;;;;;;;;5051383;28;10015;-83
2023/05/29 04:06:02;;;;;;;;;23.25;20.25;;;;;;;;5051106;28;9946;-83
2023/05/29 04:08:30;;;;;;;;;21.50;19.25;;;;;;;;5048746;28;9985;-83
2023/05/29 04:10:57;;;;;;;;;21.50;19.25;;;;;;;;5050634;28;10064;-86
2023/05/29 04:13:24;;;;;;;;;20.50;20.50;;;;;;;;5050728;28;10113;-83
2023/05/29 04:15:53;;;;;;;;;21.75;21.75;;;;;;;;5051302;28;10124;-83
2023/05/29 04:18:20;;;;;;;;;20.75;20.75;;;;;;;;5051265;28;10282;-83
2023/05/29 04:20:49;;;;;;;;;22.50;22.00;;;;;;;;5053530;28;10372;-83
2023/05/29 04:23:17;;;;;;;;;24.25;24.25;;;;;;;;5051150;28;10301;-83
2023/05/29 04:25:44;;;;;;;;;23.50;23.50;;;;;;;;5051953;28;10336;-83
2023/05/29 04:28:13;;;;;;;;;29.75;28.00;;;;;;;;5044836;28;10257;-83
2023/05/29 04:30:41;;;;;;;;;27.00;25.00;;;;;;;;5038386;28;10295;-81
2023/05/29 04:33:12;;;;;;;;;28.25;25.25;;;;;;;;5052731;28;10325;-81
2023/05/29 04:35:42;;;;;;;;;25.25;25.25;;;;;;;;5047110;28;10466;-81
2023/05/29 04:38:11;;;;;;;;;20.25;20.25;;;;;;;;5051917;28;10371;-84
2023/05/29 04:40:40;;;;;;;;;26.50;21.75;;;;;;;;5057274;28;10282;-82
2023/05/29 04:43:09;;;;;;;;;26.75;23.25;;;;;;;;5059118;28;10172;-83
2023/05/29 04:45:37;;;;;;;;;22.00;22.00;;;;;;;;5052458;28;10268;-82
2023/05/29 04:48:04;;;;;;;;;24.25;22.25;;;;;;;;5055039;28;10446;-83
2023/05/29 04:50:34;;;;;;;;;24.75;24.00;;;;;;;;5057781;28;10380;-82
2023/05/29 04:53:01;;;;;;;;;17.25;17.25;;;;;;;;5051987;28;10389;-82
2023/05/29 04:55:30;;;;;;;;;25.50;25.50;;;;;;;;5062638;28;10349;-81
2023/05/29 04:57:58;;;;;;;;;20.25;19.00;;;;;;;;5049909;28;10507;-82
2023/05/29 05:00:26;;;;;;;;;24.25;21.00;;;;;;;;5047622;28;10208;-83
2023/05/29 05:02:54;;;;;;;;;21.75;21.75;;;;;;;;5047512;28;10253;-81
2023/05/29 05:05:22;;;;;;;;;25.25;25.25;;;;;;;;5046791;28;10427;-83
2023/05/29 05:07:51;;;;;;;;;26.75;25.25;;;;;;;;5054132;28;10422;-83
2023/05/29 05:10:19;;;;;;;;;26.75;23.75;;;;;;;;5048739;28;10363;-82
2023/05/29 05:12:48;;;;;;;;;26.75;24.25;;;;;;;;5053367;28;10129;-84
2023/05/29 05:15:15;;;;;;;;;21.00;19.25;;;;;;;;5044137;28;10417;-81
2023/05/29 05:17:42;;;;;;;;;25.25;24.75;;;;;;;;5051170;28;10334;-77
2023/05/29 05:20:11;;;;;;;;;25.75;24.00;;;;;;;;5052771;28;10355;-78
2023/05/29 05:22:38;;;;;;;;;26.25;24.50;;;;;;;;5048370;28;10291;-77
2023/05/29 05:25:06;;;;;;;;;15.75;15.25;;;;;;;;5054370;28;10186;-76
2023/05/29 05:27:37;;;;;;;;;20.75;16.75;;;;;;;;5055161;28;10285;-75
2023/05/29 05:30:06;;;;;;;;;19.75;17.25;;;;;;;;5055015;28;10206;-76
2023/05/29 05:32:34;;;;;;;;;22.50;21.75;;;;;;;;5055192;28;10211;-76
2023/05/29 05:35:03;;;;;;;;;25.25;22.50;;;;;;;;5061214;28;10127;-76
2023/05/29 05:37:30;;;;;;;;;20.00;18.75;;;;;;;;5058759;28;10112;-76
2023/05/29 05:40:00;;;;;;;;;21.00;17.50;;;;;;;;5053143;28;10068;-79
2023/05/29 05:42:27;;;;;;;;;20.25;20.25;;;;;;;;5055980;28;9919;-75
2023/05/29 05:44:54;;;;;;;;;29.25;22.25;;;;;;;;5048389;28;10025;-77
2023/05/29 05:47:23;;;;;;;;;19.25;19.25;;;;;;;;5053243;28;9917;-80
2023/05/29 05:49:51;;;;;;;;;22.25;18.50;;;;;;;;5049554;28;10025;-80
2023/05/29 05:52:18;;;;;;;;;27.00;25.50;;;;;;;;5051993;28;9871;-77
2023/05/29 05:54:46;;;;;;;;;48.25;41.25;;;;;;;;5052111;28;10025;-77
2023/05/29 05:57:13;;;;;;;;;19.75;19.00;;;;;;;;5050573;28;11188;-80
2023/05/29 05:59:40;;;;;;;;;20.00;17.00;;;;;;;;5048400;28;9951;-77
2023/05/29 06:02:07;;;;;;;;;23.50;22.50;;;;;;;;5047494;28;9735;-78
2023/05/29 06:04:36;;;;;;;;;19.00;19.00;;;;;;;;5047548;28;9943;-78
2023/05/29 06:07:04;;;;;;;;;18.25;18.25;;;;;;;;5048823;28;9769;-79
2023/05/29 06:09:31;;;;;;;;;17.50;17.25;;;;;;;;5048314;28;9906;-79
2023/05/29 06:11:58;;;;;;;;;22.25;19.75;;;;;;;;5048551;28;9693;-78
2023/05/29 06:14:26;;;;;;;;;17.75;17.75;;;;;;;;5047620;28;9625;-78
2023/05/29 06:16:54;;;;;;;;;21.50;19.25;;;;;;;;5049138;28;9651;-79
2023/05/29 06:19:23;;;;;;;;;22.75;18.50;;;;;;;;5048685;28;9543;-79
2023/05/29 06:21:52;;;;;;;;;20.75;20.75;;;;;;;;5047936;28;9736;-77
2023/05/29 06:24:19;;;;;;;;;21.25;19.75;;;;;;;;5048215;28;10488;-78
2023/05/29 06:26:46;;;;;;;;;50.25;41.00;;;;;;;;5049728;28;9561;-79
2023/05/29 06:29:15;;;;;;;;;21.50;20.00;;;;;;;;5049042;28;10428;-77
2023/05/29 06:31:42;;;;;;;;;22.00;22.00;;;;;;;;5048538;28;9503;-78
2023/05/29 06:34:09;;;;;;;;;17.33;17.33;;;;;;;;5051172;28;9653;-77
2023/05/29 06:36:36;;;;;;;;;21.75;20.75;;;;;;;;5048787;28;9325;-79
2023/05/29 06:39:05;;;;;;;;;20.25;18.75;;;;;;;;5049538;28;9528;-78
2023/05/29 06:41:35;;;;;;;;;19.25;15.75;;;;;;;;5049789;28;9448;-79
2023/05/29 06:44:03;;;;;;;;;22.50;22.50;;;;;;;;5046136;28;9503;-78
2023/05/29 06:46:32;;;;;;;;;21.33;21.33;;;;;;;;5049344;28;9415;-79
2023/05/29 06:48:59;;;;;;;;;23.00;21.33;;;;;;;;5049378;28;9332;-83
2023/05/29 06:51:26;;;;;;;;;25.67;24.33;;;;;;;;5048123;28;9394;-79
2023/05/29 06:53:54;;;;;;;;;21.50;20.50;;;;;;;;5059026;28;9383;-77
2023/05/29 06:56:23;;;;;;;;;21.00;20.67;;;;;;;;5054877;28;9543;-81
2023/05/29 06:58:50;;;;;;;;;26.67;24.33;;;;;;;;5047503;28;9390;-79
2023/05/29 07:01:18;;;;;;;;;30.33;26.33;;;;;;;;5047422;28;9415;-76
2023/05/29 07:03:45;;;;;;;;;24.00;23.33;;;;;;;;5048083;28;9979;-79
2023/05/29 07:06:12;;;;;;;;;26.00;24.00;;;;;;;;5048652;28;9470;-81
2023/05/29 07:08:40;;;;;;;;;23.50;23.50;;;;;;;;5047545;28;10319;-76
2023/05/29 07:11:07;;;;;;;;;20.33;20.33;;;;;;;;5048757;28;9343;-77
2023/05/29 07:13:36;;;;;;;;;23.00;23.00;;;;;;;;5048414;28;9251;-77
2023/05/29 07:16:03;;;;;;;;;22.67;21.33;;;;;;;;5047930;28;9391;-78
2023/05/29 07:18:31;;;;;;;;;23.33;23.00;;;;;;;;5042898;28;9371;-79
2023/05/29 07:21:00;;;;;;;;;22.67;20.67;;;;;;;;5037380;28;9351;-79
2023/05/29 07:23:28;;;;;;;;;21.33;21.00;;;;;;;;5044816;28;9352;-77
2023/05/29 07:25:55;;;;;;;;;28.33;26.33;;;;;;;;5052145;28;9259;-81
2023/05/29 07:28:29;;;;;;;;;26.00;24.33;;;;;;;;5068400;28;9511;-75
2023/05/29 07:31:10;;;;;;;;;24.33;24.33;;;;;;;;5066583;28;9325;-78
2023/05/29 07:33:37;;;;;;;;;26.33;22.33;;;;;;;;5058185;28;9322;-78
2023/05/29 07:36:05;;;;;;;;;33.00;27.67;;;;;;;;5051638;28;9953;-79
2023/05/29 07:38:32;;;;;;;;;28.00;27.33;;;;;;;;5051335;28;9269;-78
2023/05/29 07:41:00;;;;;;;;;23.33;23.00;;;;;;;;5051099;28;9235;-78
2023/05/29 07:43:27;;;;;;;;;30.67;29.00;;;;;;;;5055669;28;9390;-77
2023/05/29 07:45:54;;;;;;;;;35.33;32.00;;;;;;;;5056205;28;10015;-80
2023/05/29 07:48:23;;;;;;;;;28.33;28.00;;;;;;;;5050360;28;10157;-78
2023/05/29 07:50:51;;;;;;;;;29.67;29.67;;;;;;;;5051295;28;9080;-78
2023/05/29 07:53:19;;;;;;;;;32.33;31.00;;;;;;;;5050896;28;8931;-77
2023/05/29 07:55:46;;;;;;;;;28.33;28.33;;;;;;;;5050859;28;8972;-79
2023/05/29 07:58:16;;;;;;;;;32.67;29.67;;;;;;;;5051373;28;9659;-78
2023/05/29 08:00:44;;;;;;;;;31.00;27.50;;;;;;;;5050124;28;8898;-78
2023/05/29 08:03:11;;;;;;;;;28.25;26.50;;;;;;;;5050502;28;8997;-79
2023/05/29 08:05:40;;;;;;;;;30.25;28.75;;;;;;;;5049701;28;8823;-79
2023/05/29 08:08:08;;;;;;;;;32.25;29.00;;;;;;;;5053825;28;8891;-79
2023/05/29 08:10:35;;;;;;;;;31.25;28.25;;;;;;;;5065341;28;8840;-79
2023/05/29 08:13:02;;;;;;;;;28.75;28.50;;;;;;;;5051181;28;8863;-79
2023/05/29 08:15:31;;;;;;;;;28.00;26.25;;;;;;;;5049449;28;8851;-78
2023/05/29 08:18:01;;;;;;;;;29.50;28.50;;;;;;;;5058673;28;8890;-79
2023/05/29 08:20:28;;;;;;;;;1.75;1.00;;;;;;;;5058098;28;8849;-78
2023/05/29 08:22:57;;;;;;;;;28.00;26.75;;;;;;;;5050639;28;8851;-79
2023/05/29 08:25:24;;;;;;;;;31.25;28.75;;;;;;;;5061278;28;8844;-79
2023/05/29 08:27:52;;;;;;;;;36.75;31.75;;;;;;;;5052220;28;9508;-79
2023/05/29 08:30:20;;;;;;;;;28.50;28.50;;;;;;;;5061696;28;8929;-79
2023/05/29 08:32:57;;;;;;;;;;;;;;;;;;;;;
2023/05/29 08:35:25;;;;;;;;;33.00;31.75;;;;;;;;5049509;28;9576;-79
2023/05/29 08:37:53;;;;;;;;;27.75;27.75;;;;;;;;5051867;28;8948;-80
2023/05/29 08:40:24;;;;;;;;;29.50;29.50;;;;;;;;5050885;28;8978;-79
2023/05/29 08:42:57;;;;;;;;;30.25;29.25;;;;;;;;5053048;28;9097;-79
2023/05/29 08:45:26;;;;;;;;;31.00;29.50;;;;;;;;5052405;28;10069;-78
2023/05/29 08:47:54;;;;;;;;;22.75;22.50;;;;;;;;5049600;28;8835;-79
2023/05/29 08:50:23;;;;;;;;;30.75;28.25;;;;;;;;5041942;28;8828;-78
2023/05/29 08:52:50;;;;;;;;;25.00;25.00;;;;;;;;5050595;28;8846;-81
2023/05/29 08:55:18;;;;;;;;;27.00;27.00;;;;;;;;5051720;28;8968;-79
2023/05/29 08:57:49;;;;;;;;;25.00;24.00;;;;;;;;5050382;28;8890;-78
2023/05/29 09:00:22;;;;;;;;;26.75;26.00;;;;;;;;5049307;28;8886;-78
2023/05/29 09:02:49;;;;;;;;;33.00;29.25;;;;;;;;5043817;28;8861;-77
2023/05/29 09:05:17;;;;;;;;;25.75;24.00;;;;;;;;5051150;28;8839;-80
2023/05/29 09:07:49;;;;;;;;;28.50;26.00;;;;;;;;5049412;28;8851;-81
2023/05/29 09:10:19;;;;;;;;;26.75;26.75;;;;;;;;5050044;28;8851;-80
2023/05/29 09:12:49;;;;;;;;;27.25;24.50;;;;;;;;5049345;28;8875;-78
2023/05/29 09:15:21;;;;;;;;;27.75;26.75;;;;;;;;5055801;28;9603;-81
2023/05/29 09:17:52;;;;;;;;;26.75;24.75;;;;;;;;5052498;28;8863;-77
2023/05/29 09:20:23;;;;;;;;;30.25;27.25;;;;;;;;5062651;28;8833;-77
2023/05/29 09:23:00;;;;;;;;;26.50;25.75;;;;;;;;5059724;28;8863;-80
2023/05/29 09:25:30;;;;;;;;;24.75;23.50;;;;;;;;5052766;28;8839;-77
2023/05/29 09:28:00;;;;;;;;;28.75;26.25;;;;;;;;5055522;28;8971;-80
2023/05/29 09:30:37;;;;;;;;;26.50;25.50;;;;;;;;5045383;28;9568;-81
2023/05/29 09:33:06;;;;;;;;;25.75;24.00;;;;;;;;5042183;28;8847;-83
2023/05/29 09:35:39;;;;;;;;;25.00;23.50;;;;;;;;5058196;28;8887;-86
2023/05/29 09:38:07;;;;;;;;;27.75;23.25;;;;;;;;5053834;28;8859;-83
2023/05/29 09:40:36;;;;;;;;;24.25;23.75;;;;;;;;5054187;28;8985;-82
2023/05/29 09:43:07;;;;;;;;;23.25;23.25;;;;;;;;5052417;28;8879;-79
2023/05/29 09:45:37;;;;;;;;;22.25;22.25;;;;;;;;5064158;28;8865;-80
2023/05/29 09:48:06;;;;;;;;;21.25;18.25;;;;;;;;5051200;28;8875;-82
2023/05/29 09:50:34;;;;;;;;;25.75;25.75;;;;;;;;5055577;28;8937;-84
2023/05/29 09:53:02;;;;;;;;;27.50;23.00;;;;;;;;5045777;28;8838;-78
2023/05/29 09:55:31;;;;;;;;;20.75;20.75;;;;;;;;5047710;28;9478;-78
2023/05/29 09:57:59;;;;;;;;;17.00;17.00;;;;;;;;5051182;28;8894;-79
2023/05/29 10:00:28;;;;;;;;;16.80;16.80;;;;;;;;5051739;28;9526;-79
2023/05/29 10:02:55;;;;;;;;;19.20;18.00;;;;;;;;5052036;28;9577;-78
2023/05/29 10:05:22;;;;;;;;;18.40;18.40;;;;;;;;5051070;28;8874;-77
2023/05/29 10:07:52;;;;;;;;;14.80;13.00;;;;;;;;5047697;28;8910;-77
2023/05/29 10:10:20;;;;;;;;;16.80;16.80;;;;;;;;5047505;28;8944;-78
2023/05/29 10:12:50;;;;;;;;;17.20;17.20;;;;;;;;5048093;28;8827;-76
2023/05/29 10:15:21;;;;;;;;;30.50;26.75;;;;;;;;5048137;28;8870;-80
2023/05/29 10:17:57;;;;;;;;;15.00;15.00;;;;;;;;5057124;28;8861;-77
2023/05/29 10:20:24;;;;;;;;;15.80;13.60;;;;;;;;5054149;28;9000;-77
2023/05/29 10:22:53;;;;;;;;;20.40;19.40;;;;;;;;5062494;28;8929;-76
2023/05/29 10:25:24;;;;;;;;;15.80;15.00;;;;;;;;5060954;28;8829;-76
2023/05/29 10:27:52;;;;;;;;;13.80;13.80;;;;;;;;5050504;28;8867;-76
2023/05/29 10:30:28;;;;;;;;;12.00;12.00;;;;;;;;5045711;28;8980;-77
2023/05/29 10:33:32;;;;;;;;;15.00;13.80;;;;;;;;5040195;28;8839;-77
2023/05/29 10:36:06;;;;;;;;;13.80;12.00;;;;;;;;5060369;28;8847;-79
2023/05/29 10:38:48;;;;;;;;;13.20;13.20;;;;;;;;5055028;28;8843;-80
2023/05/29 10:41:33;;;;;;;;;10.00;10.00;;;;;;;;5058400;28;8921;-79
2023/05/29 10:44:02;;;;;;;;;8.20;8.20;;;;;;;;5045974;28;8863;-78
2023/05/29 10:47:04;;;;;;;;;7.20;6.00;;;;;;;;5055923;28;8867;-81
2023/05/29 10:49:34;;;;;;;;;11.60;9.80;;;;;;;;5037801;28;8887;-77
2023/05/29 10:52:01;;;;;;;;;7.60;6.80;;;;;;;;5056405;28;8889;-78
2023/05/29 10:54:29;;;;;;;;;8.00;8.00;;;;;;;;5059732;28;8837;-76
2023/05/29 10:56:57;;;;;;;;;7.80;7.80;;;;;;;;5055888;28;8817;-77
2023/05/29 10:59:27;;;;;;;;;7.80;6.40;;;;;;;;5054155;28;9715;-77
2023/05/29 11:01:54;;;;;;;;;6.20;4.60;;;;;;;;5064879;28;9563;-77
2023/05/29 11:04:30;;;;;;;;;7.60;6.00;;;;;;;;5065396;28;8875;-78
2023/05/29 11:06:59;;;;;;;;;7.80;7.80;;;;;;;;5066286;28;8861;-77
2023/05/29 11:09:31;;;;;;;;;6.40;5.00;;;;;;;;5057020;28;8873;-77
2023/05/29 11:12:35;;;;;;;;;6.00;6.00;;;;;;;;5052001;28;8873;-77
2023/05/29 11:15:05;;;;;;;;;5.20;5.20;;;;;;;;5054253;28;8859;-76
2023/05/29 11:17:34;;;;;;;;;3.40;3.40;;;;;;;;5045755;28;8873;-75
2023/05/29 11:20:07;;;;;;;;;1.00;1.00;;;;;;;;5056810;28;8847;-75
2023/05/29 11:23:01;;;;;;;;;4.20;4.20;;;;;;;;5055277;28;8867;-78
2023/05/29 11:25:29;;;;;;;;;6.00;5.00;;;;;;;;5049474;28;8858;-78
2023/05/29 11:27:59;;;;;;;;;3.20;3.20;;;;;;;;5054177;28;8863;-80
2023/05/29 11:30:26;;;;;;;;;5.60;5.00;;;;;;;;5049517;28;8751;-78
2023/05/29 11:32:54;;;;;;;;;4.20;4.20;;;;;;;;5040384;28;8872;-79
2023/05/29 11:35:25;;;;;;;;;5.40;5.40;;;;;;;;5051374;28;8851;-78
2023/05/29 11:37:56;;;;;;;;;5.80;4.20;;;;;;;;5059758;28;9302;-79
2023/05/29 11:40:25;;;;;;;;;5.00;5.00;;;;;;;;5052084;28;8991;-80
2023/05/29 11:42:53;;;;;;;;;4.20;4.20;;;;;;;;5050952;28;8871;-80
2023/05/29 11:45:23;;;;;;;;;6.40;4.40;;;;;;;;5046964;28;8851;-83
2023/05/29 11:47:59;;;;;;;;;5.80;4.00;;;;;;;;5039343;28;8885;-79
2023/05/29 11:50:27;;;;;;;;;4.20;2.40;;;;;;;;5055449;28;8867;-76
2023/05/29 11:52:56;;;;;;;;;3.40;3.40;;;;;;;;5059360;28;8852;-75
2023/05/29 11:55:26;;;;;;;;;7.20;4.40;;;;;;;;5061221;28;9633;-77
2023/05/29 11:57:58;;;;;;;;;6.00;3.20;;;;;;;;5056215;28;8989;-77
2023/05/29 12:00:25;;;;;;;;;2.00;2.00;;;;;;;;5053343;28;8917;-78
2023/05/29 12:02:53;;;;;;;;;4.20;4.20;;;;;;;;5052418;28;8843;-76
2023/05/29 12:05:21;;;;;;;;;4.40;4.00;;;;;;;;5053357;28;8854;-76
2023/05/29 12:07:49;;;;;;;;;6.20;3.00;;;;;;;;5046486;28;8857;-76
2023/05/29 12:10:20;;;;;;;;;4.40;3.00;;;;;;;;5046964;28;8847;-78
2023/05/29 12:12:55;;;;;;;;;3.40;3.40;;;;;;;;5050738;28;8847;-76
2023/05/29 12:15:22;;;;;;;;;5.80;4.20;;;;;;;;5041102;28;8863;-79
2023/05/29 12:17:51;;;;;;;;;5.60;3.00;;;;;;;;5058385;28;8847;-79
2023/05/29 12:20:20;;;;;;;;;5.00;4.00;;;;;;;;5057078;28;8844;-81
2023/05/29 12:22:47;;;;;;;;;4.40;4.40;;;;;;;;5048468;28;8850;-80
2023/05/29 12:25:16;;;;;;;;;5.00;4.20;;;;;;;;5058310;28;8850;-81
2023/05/29 12:27:46;;;;;;;;;4.80;3.80;;;;;;;;5059753;28;8946;-81
2023/05/29 12:30:17;;;;;;;;;3.60;3.60;;;;;;;;5063570;28;8901;-81
2023/05/29 12:32:46;;;;;;;;;4.00;4.00;;;;;;;;5064072;28;8833;-78
2023/05/29 12:35:15;;;;;;;;;4.20;2.80;;;;;;;;5067190;28;9611;-80
2023/05/29 12:37:49;;;;;;;;;2.00;2.00;;;;;;;;5066988;28;8836;-79
2023/05/29 12:40:18;;;;;;;;;2.80;2.80;;;;;;;;5069178;28;8879;-77
2023/05/29 12:42:45;;;;;;;;;2.80;2.80;;;;;;;;5066628;28;8872;-80
2023/05/29 12:45:14;;;;;;;;;4.00;3.60;;;;;;;;5065656;28;8953;-81
2023/05/29 12:47:54;;;;;;;;;2.80;2.80;;;;;;;;5044833;28;8850;-79
2023/05/29 12:50:26;;;;;;;;;2.00;2.00;;;;;;;;5046396;28;8913;-80
2023/05/29 12:53:01;;;;;;;;;5.00;3.60;;;;;;;;5046650;28;8851;-77
2023/05/29 12:55:29;;;;;;;;;3.40;3.40;;;;;;;;5050251;28;8855;-82
2023/05/29 12:57:57;;;;;;;;;5.60;5.20;;;;;;;;5053161;28;8885;-79
2023/05/29 13:00:28;;;;;;;;;6.60;4.00;;;;;;;;5049868;28;8862;-78
2023/05/29 13:02:56;;;;;;;;;4.40;4.40;;;;;;;;5046020;28;8928;-78
2023/05/29 13:05:23;;;;;;;;;4.40;4.40;;;;;;;;5066592;28;8853;-80
2023/05/29 13:07:51;;;;;;;;;3.80;3.00;;;;;;;;5052522;28;8862;-80
2023/05/29 13:10:19;;;;;;;;;7.00;5.20;;;;;;;;5044370;28;8853;-79
2023/05/29 13:12:46;;;;;;;;;6.00;6.00;;;;;;;;5048734;28;8851;-79
2023/05/29 13:15:15;;;;;;;;;5.20;3.60;;;;;;;;5048125;28;8936;-77
2023/05/29 13:17:44;;;;;;;;;5.60;3.20;;;;;;;;5049645;28;8851;-78
2023/05/29 13:20:12;;;;;;;;;5.60;5.40;;;;;;;;5050275;28;8867;-79
2023/05/29 13:22:40;;;;;;;;;7.00;5.00;;;;;;;;5038096;28;8936;-78
2023/05/29 13:25:10;;;;;;;;;2.40;2.00;;;;;;;;5050755;28;8875;-79
2023/05/29 13:27:37;;;;;;;;;2.60;2.60;;;;;;;;5050791;28;9029;-79
2023/05/29 13:30:06;;;;;;;;;4.00;4.00;;;;;;;;5048465;28;8875;-81
2023/05/29 13:32:34;;;;;;;;;4.40;3.60;;;;;;;;5048027;28;8865;-79
2023/05/29 13:35:05;;;;;;;;;4.00;4.00;;;;;;;;5050644;28;8871;-83
2023/05/29 13:37:32;;;;;;;;;5.00;3.40;;;;;;;;5049874;28;8913;-81
2023/05/29 13:40:00;;;;;;;;;3.60;3.00;;;;;;;;5054401;28;8865;-80
2023/05/29 13:42:29;;;;;;;;;4.40;4.00;;;;;;;;5050279;28;8863;-81
2023/05/29 13:44:56;;;;;;;;;4.00;4.00;;;;;;;;5056854;28;8889;-79
2023/05/29 13:47:26;;;;;;;;;3.00;3.00;;;;;;;;5050923;28;8847;-79
2023/05/29 13:49:53;;;;;;;;;2.00;2.00;;;;;;;;5048995;28;8873;-80
2023/05/29 13:52:22;;;;;;;;;2.80;2.80;;;;;;;;5047549;28;8859;-80
2023/05/29 13:54:49;;;;;;;;;2.20;2.20;;;;;;;;5050078;28;8954;-79
2023/05/29 13:57:17;;;;;;;;;3.00;3.00;;;;;;;;5048652;28;8928;-78
2023/05/29 13:59:45;;;;;;;;;4.00;4.00;;;;;;;;5048983;28;9009;-79
2023/05/29 14:02:13;;;;;;;;;4.00;4.00;;;;;;;;5048957;28;8812;-79
2023/05/29 14:04:42;;;;;;;;;4.00;4.00;;;;;;;;5048103;28;8870;-79
2023/05/29 14:07:09;;;;;;;;;3.00;3.00;;;;;;;;5048799;28;8847;-79
2023/05/29 14:09:38;;;;;;;;;7.00;3.80;;;;;;;;5049060;28;8881;-79
2023/05/29 14:12:06;;;;;;;;;3.60;3.20;;;;;;;;5048106;28;8840;-82
2023/05/29 14:14:37;;;;;;;;;3.00;3.00;;;;;;;;5049040;28;8873;-80
2023/05/29 14:17:05;;;;;;;;;3.40;3.40;;;;;;;;5049133;28;8940;-80
2023/05/29 14:19:32;;;;;;;;;4.80;3.40;;;;;;;;5049391;28;8952;-80
2023/05/29 14:22:00;;;;;;;;;3.60;3.20;;;;;;;;5048361;28;8864;-81
2023/05/29 14:24:28;;;;;;;;;5.80;4.60;;;;;;;;5050069;28;9032;-80
2023/05/29 14:26:56;;;;;;;;;4.40;4.40;;;;;;;;5049136;28;9601;-81
2023/05/29 14:29:29;;;;;;;;;5.00;3.60;;;;;;;;5044986;28;8829;-78
2023/05/29 14:31:56;;;;;;;;;4.00;3.60;;;;;;;;5049279;28;8799;-80
2023/05/29 14:34:23;;;;;;;;;7.20;2.20;;;;;;;;5048725;28;8954;-78
2023/05/29 14:36:51;;;;;;;;;2.40;2.40;;;;;;;;5045112;28;8867;-79
2023/05/29 14:39:18;;;;;;;;;4.20;3.00;;;;;;;;5050904;28;8867;-79
2023/05/29 14:41:45;;;;;;;;;6.00;4.80;;;;;;;;5054726;28;8877;-78
2023/05/29 14:44:15;;;;;;;;;3.40;3.40;;;;;;;;5047612;28;8969;-78
2023/05/29 14:46:44;;;;;;;;;5.00;5.00;;;;;;;;5047784;28;8865;-79
2023/05/29 14:49:12;;;;;;;;;5.00;4.00;;;;;;;;5048697;28;8847;-77
2023/05/29 14:51:39;;;;;;;;;4.20;2.80;;;;;;;;5047708;28;8989;-81